createdAt,value
2023-01-06T00:02:58.667Z,0.90
2023-01-06T00:06:02.969Z,2.05
2023-01-06T00:09:06.928Z,2.43
2023-01-06T00:12:09.740Z,3.73
2023-01-06T00:15:12.792Z,2.87
2023-01-06T00:18:15.583Z,5.37
2023-01-06T00:21:18.193Z,5.12
2023-01-06T00:24:21.134Z,4.33
2023-01-06T00:27:23.691Z,2.53
2023-01-06T00:30:27.748Z,2.58
2023-01-06T00:33:30.355Z,2.20
2023-01-06T00:36:33.252Z,3.00
2023-01-06T00:39:35.815Z,2.60
2023-01-06T00:42:38.611Z,2.23
2023-01-06T00:45:41.103Z,2.40
2023-01-06T00:48:59.944Z,1.50
2023-01-06T00:52:06.561Z,3.30
2023-01-06T00:55:09.640Z,4.83
2023-01-06T00:58:12.304Z,4.23
2023-01-06T01:01:15.255Z,3.10
2023-01-06T01:04:18.365Z,3.90
2023-01-06T01:07:21.166Z,1.87
2023-01-06T01:10:23.736Z,3.43
2023-01-06T01:13:26.723Z,5.37
2023-01-06T01:16:29.391Z,5.78
2023-01-06T01:19:33.666Z,4.55
2023-01-06T01:22:36.334Z,2.53
2023-01-06T01:25:40.758Z,3.83
2023-01-06T01:28:44.095Z,3.00
2023-01-06T01:31:47.609Z,2.05
2023-01-06T01:34:50.311Z,2.80
2023-01-06T01:37:53.176Z,3.67
2023-01-06T01:40:55.680Z,1.87
2023-01-06T01:44:23.233Z,4.40
2023-01-06T01:47:45.208Z,2.90
2023-01-06T01:50:51.474Z,2.47
2023-01-06T01:53:55.852Z,3.08
2023-01-06T01:57:04.935Z,4.33
2023-01-06T02:00:11.255Z,6.40
2023-01-06T02:03:15.785Z,5.00
2023-01-06T02:06:22.043Z,4.43
2023-01-06T02:09:33.617Z,2.22
2023-01-06T02:12:36.992Z,2.60
2023-01-06T02:15:42.361Z,2.77
2023-01-06T02:18:51.303Z,2.45
2023-01-06T02:22:15.154Z,2.90
2023-01-06T02:25:43.273Z,4.78
2023-01-06T02:29:00.137Z,2.60
2023-01-06T02:32:26.442Z,4.07
2023-01-06T02:36:13.958Z,4.22
2023-01-06T02:39:34.976Z,4.47
2023-01-06T02:43:05.026Z,4.22
2023-01-06T02:46:11.228Z,2.77
2023-01-06T02:49:53.705Z,7.73
2023-01-06T02:53:18.901Z,2.58
2023-01-06T02:56:24.539Z,2.08
2023-01-06T02:59:33.495Z,4.43
2023-01-06T03:02:37.989Z,3.93
2023-01-06T03:05:43.949Z,4.17
2023-01-06T03:08:49.039Z,4.57
2023-01-06T03:11:52.493Z,3.72
2023-01-06T03:14:56.356Z,3.90
2023-01-06T03:17:59.593Z,4.40
2023-01-06T03:21:06.339Z,7.57
2023-01-06T03:24:10.379Z,7.00
2023-01-06T03:27:17.129Z,4.53
2023-01-06T03:30:20.944Z,3.97
2023-01-06T03:33:30.744Z,4.23
2023-01-06T03:36:37.113Z,3.43
2023-01-06T03:40:00.473Z,4.57
2023-01-06T03:43:13.636Z,3.42
2023-01-06T03:46:28.367Z,5.05
2023-01-06T03:49:33.520Z,3.57
2023-01-06T03:52:42.212Z,8.30
2023-01-06T03:55:48.277Z,6.40
2023-01-06T03:58:54.134Z,7.30
2023-01-06T04:01:57.440Z,5.18
2023-01-06T04:05:07.075Z,3.70
2023-01-06T04:08:09.719Z,4.33
2023-01-06T04:11:33.686Z,4.95
2023-01-06T04:14:36.275Z,5.35
2023-01-06T04:17:40.448Z,8.40
2023-01-06T04:20:43.889Z,4.07
2023-01-06T04:23:46.935Z,6.37
2023-01-06T04:26:49.520Z,5.22
2023-01-06T04:29:52.773Z,3.85
2023-01-06T04:32:55.368Z,4.30
2023-01-06T04:35:58.152Z,4.03
2023-01-06T04:39:01.937Z,6.40
2023-01-06T04:42:04.963Z,3.40
2023-01-06T04:45:08.162Z,4.68
2023-01-06T04:48:12.026Z,2.12
2023-01-06T04:51:14.723Z,2.67
2023-01-06T04:54:17.782Z,3.83
2023-01-06T04:57:20.321Z,4.18
2023-01-06T05:00:23.353Z,4.15
2023-01-06T05:03:26.029Z,3.45
2023-01-06T05:06:29.094Z,4.33
2023-01-06T05:09:31.817Z,4.30
2023-01-06T05:12:35.071Z,6.97
2023-01-06T05:15:39.221Z,9.38
2023-01-06T05:18:42.449Z,5.75
2023-01-06T05:21:45.039Z,5.83
2023-01-06T05:24:47.907Z,5.20
2023-01-06T05:27:50.431Z,3.95
2023-01-06T05:30:54.032Z,5.28
2023-01-06T05:33:56.684Z,6.72
2023-01-06T05:36:59.652Z,3.47
2023-01-06T05:40:02.335Z,7.30
2023-01-06T05:43:05.142Z,3.95
2023-01-06T05:46:09.408Z,5.10
2023-01-06T05:49:12.545Z,7.45
2023-01-06T05:52:15.242Z,7.93
2023-01-06T05:55:18.057Z,5.87
2023-01-06T05:58:20.669Z,5.75
2023-01-06T06:01:24.674Z,5.40
2023-01-06T06:04:27.817Z,73.43
2023-01-06T06:07:30.397Z,49.47
2023-01-06T06:10:33.514Z,38.00
2023-01-06T06:13:36.147Z,25.58
2023-01-06T06:16:39.121Z,19.02
2023-01-06T06:19:41.715Z,17.25
2023-01-06T06:22:44.643Z,21.23
2023-01-06T06:25:50.256Z,24.13
2023-01-06T06:28:53.357Z,21.60
2023-01-06T06:31:55.920Z,17.62
2023-01-06T06:34:58.835Z,14.18
2023-01-06T06:38:01.496Z,16.03
2023-01-06T06:41:05.044Z,21.83
2023-01-06T06:44:07.714Z,20.40
2023-01-06T06:47:10.616Z,28.23
2023-01-06T06:50:13.801Z,37.67
2023-01-06T06:53:16.620Z,35.47
2023-01-06T06:56:20.251Z,25.40
2023-01-06T06:59:23.135Z,24.15
2023-01-06T07:02:25.724Z,18.55
2023-01-06T07:05:29.561Z,22.73
2023-01-06T07:08:33.632Z,20.83
2023-01-06T07:11:36.473Z,23.17
2023-01-06T07:14:39.017Z,24.65
2023-01-06T07:17:42.134Z,18.48
2023-01-06T07:20:49.888Z,19.48
2023-01-06T07:23:52.961Z,20.67
2023-01-06T07:26:55.508Z,15.23
2023-01-06T07:29:58.360Z,14.05
2023-01-06T07:33:01.097Z,13.15
2023-01-06T07:36:04.346Z,12.63
2023-01-06T07:39:07.089Z,13.13
2023-01-06T07:42:10.418Z,15.60
2023-01-06T07:45:13.617Z,18.58
2023-01-06T07:48:17.199Z,31.48
2023-01-06T07:51:19.756Z,28.05
2023-01-06T07:54:22.710Z,29.23
2023-01-06T07:57:29.210Z,38.13
2023-01-06T08:00:32.111Z,34.00
2023-01-06T08:03:34.934Z,31.62
2023-01-06T08:06:40.304Z,27.25
2023-01-06T08:09:43.583Z,24.40
2023-01-06T08:12:46.182Z,20.43
2023-01-06T08:15:51.953Z,23.27
2023-01-06T08:18:54.629Z,24.12
2023-01-06T08:21:57.493Z,26.12
2023-01-06T08:24:59.967Z,24.90
2023-01-06T08:28:03.879Z,24.17
2023-01-06T08:31:13.804Z,27.40
2023-01-06T08:34:17.887Z,19.75
2023-01-06T08:37:20.473Z,19.55
2023-01-06T08:40:23.333Z,16.53
2023-01-06T08:43:26.550Z,15.70
2023-01-06T08:46:29.347Z,13.75
2023-01-06T08:49:32.265Z,19.62
2023-01-06T08:52:35.209Z,17.35
2023-01-06T08:55:42.048Z,14.03
2023-01-06T08:58:45.225Z,8.90
2023-01-06T09:01:47.863Z,7.90
2023-01-06T09:04:50.766Z,8.25
2023-01-06T09:07:54.689Z,4.47
2023-01-06T09:10:57.569Z,7.13
2023-01-06T09:14:00.133Z,6.73
2023-01-06T09:17:02.929Z,6.78
2023-01-06T09:20:06.204Z,8.15
2023-01-06T09:23:09.141Z,8.52
2023-01-06T09:26:11.897Z,5.27
2023-01-06T09:29:14.882Z,9.33
2023-01-06T09:32:17.665Z,7.70
2023-01-06T09:35:20.644Z,8.57
2023-01-06T09:38:23.331Z,5.03
2023-01-06T09:42:11.078Z,6.23
2023-01-06T09:45:20.023Z,6.33
2023-01-06T09:48:29.790Z,5.60
2023-01-06T09:51:32.989Z,9.80
2023-01-06T09:54:42.259Z,5.25
2023-01-06T09:57:56.016Z,6.43
2023-01-06T10:01:03.445Z,11.00
2023-01-06T10:04:06.509Z,14.32
2023-01-06T10:07:36.436Z,22.70
2023-01-06T10:10:39.381Z,19.83
2023-01-06T10:13:55.536Z,10.03
2023-01-06T10:17:07.393Z,9.63
2023-01-06T10:20:31.263Z,16.90
2023-01-06T10:23:42.951Z,13.10
2023-01-06T10:26:59.741Z,10.73
2023-01-06T10:30:04.058Z,15.77
2023-01-06T10:33:06.753Z,16.33
2023-01-06T10:36:13.027Z,16.35
2023-01-06T10:39:21.727Z,15.57
2023-01-06T10:42:55.670Z,11.02
2023-01-06T10:45:58.506Z,11.33
2023-01-06T10:49:02.397Z,13.50
2023-01-06T10:52:05.191Z,12.32
2023-01-06T10:55:10.121Z,11.23
2023-01-06T10:58:41.470Z,8.90
2023-01-06T11:01:50.303Z,10.60
2023-01-06T11:04:52.947Z,8.53
2023-01-06T11:08:04.603Z,7.35
2023-01-06T11:11:26.740Z,10.13
2023-01-06T11:14:32.428Z,8.07
2023-01-06T11:17:35.189Z,13.73
2023-01-06T11:20:38.494Z,9.90
2023-01-06T11:23:43.324Z,8.20
2023-01-06T11:26:57.809Z,11.38
2023-01-06T11:30:20.545Z,8.63
2023-01-06T11:33:24.874Z,9.47
2023-01-06T11:36:31.017Z,9.87
2023-01-06T11:39:36.106Z,12.10
2023-01-06T11:45:53.741Z,14.25
2023-01-06T11:49:03.077Z,8.40
2023-01-06T11:52:18.240Z,13.10
2023-01-06T11:55:22.287Z,28.12
2023-01-06T11:58:54.376Z,11.38
2023-01-06T12:02:00.815Z,19.08
2023-01-06T12:05:06.315Z,19.27
2023-01-06T12:08:17.955Z,15.67
2023-01-06T12:11:42.577Z,14.15
2023-01-06T12:14:45.941Z,10.60
2023-01-06T12:18:17.542Z,11.88
2023-01-06T12:21:30.532Z,13.30
2023-01-06T12:24:34.030Z,11.87
2023-01-06T12:27:48.708Z,11.20
2023-01-06T12:31:15.474Z,7.30
2023-01-06T12:34:29.768Z,8.27
2023-01-06T12:37:33.342Z,7.83
2023-01-06T12:40:49.058Z,7.13
2023-01-06T12:44:03.127Z,12.45
2023-01-06T12:47:17.348Z,9.45
2023-01-06T12:50:39.110Z,12.73
2023-01-06T12:53:47.612Z,7.20
2023-01-06T12:57:22.425Z,8.03
2023-01-06T13:00:53.029Z,11.35
2023-01-06T13:04:02.607Z,9.73
2023-01-06T13:07:24.996Z,12.27
2023-01-06T13:10:52.782Z,15.53
2023-01-06T13:14:20.617Z,8.73
2023-01-06T13:17:42.280Z,11.75
2023-01-06T13:21:12.911Z,6.53
2023-01-06T13:24:21.804Z,12.93
2023-01-06T13:27:33.813Z,7.87
2023-01-06T13:30:50.611Z,7.80
2023-01-06T13:34:31.721Z,15.38
2023-01-06T13:37:45.150Z,9.70
2023-01-06T13:40:50.162Z,9.40
2023-01-06T13:43:54.992Z,7.87
2023-01-06T13:47:05.189Z,14.87
2023-01-06T13:50:11.342Z,16.55
2023-01-06T13:53:18.286Z,12.45
2023-01-06T13:56:21.003Z,11.65
2023-01-06T13:59:24.870Z,10.13
2023-01-06T14:02:38.149Z,6.73
2023-01-06T14:05:40.910Z,10.55
2023-01-06T14:08:52.186Z,9.25
2023-01-06T14:12:09.118Z,10.95
2023-01-06T14:15:20.946Z,24.87
2023-01-06T14:19:04.148Z,23.53
2023-01-06T14:22:19.553Z,19.87
2023-01-06T14:25:22.838Z,24.92
2023-01-06T14:28:29.001Z,37.92
2023-01-06T14:31:31.873Z,30.07
2023-01-06T14:34:35.920Z,30.00
2023-01-06T14:37:42.987Z,32.72
2023-01-06T14:41:06.509Z,34.25
2023-01-06T14:44:15.689Z,49.42
2023-01-06T14:47:21.208Z,40.50
2023-01-06T14:50:34.810Z,29.73
2023-01-06T14:53:58.971Z,21.70
2023-01-06T14:57:03.580Z,14.00
2023-01-06T15:00:24.302Z,10.32
2023-01-06T15:03:28.609Z,15.10
2023-01-06T15:06:32.169Z,21.80
2023-01-06T15:09:35.329Z,21.50
2023-01-06T15:12:40.323Z,15.00
2023-01-06T15:15:53.071Z,15.45
2023-01-06T15:18:56.050Z,19.17
2023-01-06T15:22:00.372Z,22.20
2023-01-06T15:25:03.089Z,17.08
2023-01-06T15:28:06.020Z,17.45
2023-01-06T15:31:18.635Z,25.40
2023-01-06T15:34:34.452Z,22.23
2023-01-06T15:37:37.786Z,20.87
2023-01-06T15:40:41.154Z,18.00
2023-01-06T15:43:45.593Z,51.47
2023-01-06T15:46:50.058Z,68.68
2023-01-06T15:49:55.043Z,124.57
2023-01-06T15:53:00.293Z,142.57
2023-01-06T15:56:05.295Z,91.70
2023-01-06T15:59:13.957Z,42.62
2023-01-06T16:02:18.827Z,37.35
2023-01-06T16:05:42.619Z,64.43
2023-01-06T16:08:46.115Z,43.03
2023-01-06T16:11:57.921Z,86.18
2023-01-06T16:15:36.308Z,36.95
2023-01-06T16:18:39.214Z,42.72
2023-01-06T16:21:43.078Z,64.87
2023-01-06T16:24:50.487Z,90.77
2023-01-06T16:27:55.705Z,178.57
2023-01-06T16:31:13.021Z,257.33
2023-01-06T16:34:21.845Z,118.72
2023-01-06T16:37:24.647Z,127.10
2023-01-06T16:40:28.406Z,109.20
2023-01-06T16:43:31.348Z,93.30
2023-01-06T16:46:34.013Z,88.22
2023-01-06T16:49:36.969Z,104.22
2023-01-06T16:52:39.552Z,115.97
2023-01-06T16:55:43.420Z,148.17
2023-01-06T16:58:46.274Z,162.07
2023-01-06T17:01:49.491Z,216.75
2023-01-06T17:04:52.382Z,170.98
2023-01-06T17:08:00.501Z,139.30
2023-01-06T17:11:15.756Z,131.10
2023-01-06T17:14:20.902Z,78.45
2023-01-06T17:17:23.426Z,56.45
2023-01-06T17:20:26.306Z,60.30
2023-01-06T17:23:31.826Z,79.23
2023-01-06T17:26:34.876Z,54.03
2023-01-06T17:29:38.069Z,61.22
2023-01-06T17:32:43.415Z,62.00
2023-01-06T17:35:49.023Z,59.00
2023-01-06T17:38:52.462Z,62.37
2023-01-06T17:42:18.218Z,65.03
2023-01-06T17:45:25.777Z,69.05
2023-01-06T17:48:28.810Z,87.75
2023-01-06T17:51:31.902Z,48.28
2023-01-06T17:54:52.973Z,62.87
2023-01-06T17:57:56.935Z,72.03
2023-01-06T18:01:00.203Z,46.20
2023-01-06T18:04:06.613Z,55.10
2023-01-06T18:07:13.413Z,45.67
2023-01-06T18:10:17.931Z,61.00
2023-01-06T18:13:24.483Z,59.40
2023-01-06T18:16:35.383Z,58.72
2023-01-06T18:19:38.235Z,51.85
2023-01-06T18:22:41.126Z,41.47
2023-01-06T18:25:43.867Z,44.47
2023-01-06T18:28:46.748Z,54.00
2023-01-06T18:31:50.780Z,53.45
2023-01-06T18:34:56.415Z,78.75
2023-01-06T18:38:00.507Z,73.10
2023-01-06T18:41:03.725Z,63.60
2023-01-06T18:44:16.237Z,60.13
2023-01-06T18:47:23.550Z,51.50
2023-01-06T18:50:34.246Z,45.40
2023-01-06T18:53:41.408Z,64.03
2023-01-06T18:56:43.984Z,56.97
2023-01-06T18:59:47.017Z,66.87
2023-01-06T19:02:51.282Z,67.00
2023-01-06T19:06:18.933Z,106.70
2023-01-06T19:09:27.807Z,157.35
2023-01-06T19:12:36.298Z,219.77
2023-01-06T19:15:39.204Z,178.87
2023-01-06T19:18:42.421Z,146.00
2023-01-06T19:21:45.265Z,122.45
2023-01-06T19:24:49.371Z,107.13
2023-01-06T19:27:56.215Z,96.07
2023-01-06T19:31:05.950Z,88.95
2023-01-06T19:34:13.933Z,125.93
2023-01-06T19:37:17.811Z,129.90
2023-01-06T19:40:26.865Z,99.60
2023-01-06T19:43:32.515Z,54.75
2023-01-06T19:46:46.400Z,32.83
2023-01-06T19:49:53.227Z,20.50
2023-01-06T19:52:58.453Z,19.90
2023-01-06T19:56:14.032Z,16.83
2023-01-06T19:59:22.068Z,28.27
2023-01-06T20:02:29.896Z,29.65
2023-01-06T20:05:33.176Z,31.60
2023-01-06T20:08:35.938Z,26.08
2023-01-06T20:11:39.004Z,31.47
2023-01-06T20:14:41.599Z,34.22
2023-01-06T20:17:44.577Z,32.85
2023-01-06T20:20:47.967Z,40.15
2023-01-06T20:23:50.826Z,41.92
2023-01-06T20:26:53.470Z,40.23
2023-01-06T20:29:56.513Z,44.88
2023-01-06T20:32:59.071Z,48.13
2023-01-06T20:36:01.933Z,49.55
2023-01-06T20:39:04.725Z,47.30
2023-01-06T20:42:08.273Z,51.77
2023-01-06T20:45:14.098Z,43.87
2023-01-06T20:48:16.941Z,49.83
2023-01-06T20:51:19.555Z,46.80
2023-01-06T20:54:22.508Z,43.92
2023-01-06T20:57:25.430Z,35.37
2023-01-06T21:00:28.303Z,35.50
2023-01-06T21:03:31.376Z,42.42
2023-01-06T21:06:34.311Z,37.28
2023-01-06T21:09:37.067Z,40.72
2023-01-06T21:12:39.951Z,37.90
2023-01-06T21:15:42.576Z,38.92
2023-01-06T21:18:45.598Z,42.78
2023-01-06T21:21:48.578Z,40.97
2023-01-06T21:24:51.420Z,40.75
2023-01-06T21:27:53.980Z,44.40
2023-01-06T21:30:56.855Z,46.53
2023-01-06T21:33:59.446Z,48.65
2023-01-06T21:37:02.391Z,42.92
2023-01-06T21:40:08.188Z,45.03
2023-01-06T21:43:11.220Z,43.40
2023-01-06T21:46:13.835Z,34.70
2023-01-06T21:49:16.787Z,27.83
2023-01-06T21:52:19.584Z,21.90
2023-01-06T21:55:22.510Z,18.95
2023-01-06T21:58:25.300Z,24.00
2023-01-06T22:01:28.321Z,32.80
2023-01-06T22:04:31.313Z,31.12
2023-01-06T22:07:35.227Z,17.62
2023-01-06T22:10:40.703Z,18.08
2023-01-06T22:13:43.500Z,17.70
2023-01-06T22:16:46.720Z,22.85
2023-01-06T22:19:50.327Z,25.45
2023-01-06T22:22:53.244Z,16.10
2023-01-06T22:25:55.832Z,16.17
2023-01-06T22:28:58.763Z,18.07
2023-01-06T22:32:05.449Z,12.88
2023-01-06T22:35:08.852Z,14.25
2023-01-06T22:38:11.393Z,14.70
2023-01-06T22:41:14.243Z,15.48
2023-01-06T22:44:16.829Z,15.53
2023-01-06T22:47:19.672Z,13.65
2023-01-06T22:50:22.324Z,9.40
2023-01-06T22:53:26.778Z,9.13
2023-01-06T22:56:29.371Z,9.20
2023-01-06T22:59:32.387Z,6.87
2023-01-06T23:02:35.107Z,5.57
2023-01-06T23:05:37.918Z,5.65
2023-01-06T23:08:58.597Z,6.90
2023-01-06T23:12:03.019Z,5.50
2023-01-06T23:15:06.395Z,5.13
2023-01-06T23:18:09.248Z,5.97
2023-01-06T23:21:16.838Z,5.55
2023-01-06T23:24:19.652Z,5.95
2023-01-06T23:27:22.164Z,9.02
2023-01-06T23:30:25.014Z,6.17
2023-01-06T23:33:27.658Z,6.47
2023-01-06T23:36:30.841Z,9.82
2023-01-06T23:39:33.370Z,6.07
2023-01-06T23:42:40.927Z,4.03
2023-01-06T23:45:52.772Z,6.30
2023-01-06T23:48:56.529Z,7.07
2023-01-06T23:51:59.099Z,6.70
2023-01-06T23:55:02.733Z,7.85
2023-01-06T23:58:05.273Z,5.25
